Nellysford, VA (22958)

3:59 AM EST on December 07, 2016 (GMT -0500)
BRL-Trager Bros Coffee-RVCC | | Change Station

Elev 689 ft 37.93 °N, 78.84 °W | Updated 10 seconds ago

Overcast
Overcast
31.9 °F
Feels Like 32 °F
N
0.0
Wind Variable Wind from WSW
Gusts 2.0 mph

Today
High -- | Low -- °F
--% Chance of Precip.
Yesterday
High -- | Low -- °F
Precip. -- in
Pressure 29.93 in
Visibility 1.5 miles
Clouds Overcast 900 ft
Windchill 32 °F
Dew Point 30 °F
Humidity 92%
Rainfall 0.00 in
Snow Depth Not available.
7:18 AM 4:56 PM
Waxing Crescent, 50% visible
METAR KSHD 070835Z AUTO 00000KT 1 1/2SM BR OVC009 01/01 A2993 RMK AO2 T00140013
Pressure 29.93 in
Visibility 1.5 miles
Clouds Overcast 900 ft
Windchill 32 °F
Dew Point 30 °F
Humidity 92%
Rainfall 0.00 in
Snow Depth Not available.
7:18 AM 4:56 PM
Waxing Crescent, 50% visible
METAR KSHD 070835Z AUTO 00000KT 1 1/2SM BR OVC009 01/01 A2993 RMK AO2 T00140013

10-Day Weather Forecast

Almanac

Astronomy

Dec. 07, 2016 Rise Set
Actual Time
Civil Twilight
Nautical Twilight
Astronomical Twilight
Moon
Length of Visible Light
Length of Day
Tomorrow will be .
, % of the Moon is Illuminated

Today's Extremes

State Highs State Lows

Community

WunderPhotos

Upload Photos

1,956,104 photos uploaded!

WunderBlog® & News

Nearby

Air Quality

  Air Quality AQ Index Pollutant
Not available.

Snow Depth

Station Depth Elevation

Earthquake Activity

City Distance Mag. Time & Date
Minimum magnitude displayed is 2.5.

Coastal Water Temperatures

Place Temperature

Stations

Nearby Weather Stations

Station Location Temp. Windchill Dew Point Humidity Wind Precip. Elev Updated Type
                   

Watches & Warnings

There are currently no watches in effect.